Time;durP1;ratioP1;P1;durP2;ratioP2;P2;SDS_P1;SDS_P2;PMS_P1;PMS_P2;Temp;Humidity;BMP_temperature;BMP_pressure;BME280_temperature;BME280_humidity;BME280_pressure;Samples;Min_cycle;Max_cycle;Signal;HPM_P1;HPM_P2
2022/06/26 00:01:00;;;;;;;9.10;4.05;;;16.20;99.90;;;;;;4972933;28;20082;-78
2022/06/26 00:03:28;;;;;;;11.80;4.55;;;16.40;99.90;;;;;;4974729;28;20023;-78
2022/06/26 00:05:55;;;;;;;13.32;4.50;;;16.20;99.90;;;;;;4972461;28;20077;-78
2022/06/26 00:08:21;;;;;;;7.38;3.72;;;16.20;99.90;;;;;;4973853;28;20454;-78
2022/06/26 00:10:47;;;;;;;8.73;3.95;;;16.20;99.90;;;;;;4973924;28;20069;-78
2022/06/26 00:13:13;;;;;;;9.88;4.18;;;16.30;99.90;;;;;;4973775;28;20093;-79
2022/06/26 00:15:41;;;;;;;13.95;5.25;;;16.20;99.90;;;;;;4973603;28;20027;-78
2022/06/26 00:18:06;;;;;;;15.30;4.90;;;16.20;99.90;;;;;;4973666;28;20463;-78
2022/06/26 00:20:32;;;;;;;15.38;4.95;;;16.20;99.90;;;;;;4973684;28;20023;-78
2022/06/26 00:22:58;;;;;;;8.85;4.97;;;16.10;99.90;;;;;;4973365;28;20534;-78
2022/06/26 00:25:23;;;;;;;16.63;5.20;;;16.10;99.90;;;;;;4981243;28;20034;-78
2022/06/26 00:27:49;;;;;;;12.40;5.00;;;16.10;99.90;;;;;;4979408;28;20037;-78
2022/06/26 00:30:15;;;;;;;14.70;6.07;;;16.10;99.90;;;;;;4973544;28;20027;-79
2022/06/26 00:32:41;;;;;;;14.73;6.43;;;16.20;99.90;;;;;;4976567;28;20042;-79
2022/06/26 00:35:07;;;;;;;11.70;5.80;;;16.10;99.90;;;;;;4990931;28;20474;-79
2022/06/26 00:37:33;;;;;;;13.98;6.45;;;16.20;99.90;;;;;;4989023;28;20355;-78
2022/06/26 00:39:58;;;;;;;21.15;7.15;;;16.20;99.90;;;;;;4978949;28;20030;-78
2022/06/26 00:42:24;;;;;;;15.45;6.68;;;16.20;99.90;;;;;;4979110;28;20038;-78
2022/06/26 00:44:52;;;;;;;13.70;6.82;;;16.20;99.90;;;;;;4985549;28;20035;-78
2022/06/26 00:47:19;;;;;;;13.30;6.38;;;16.20;99.90;;;;;;4987684;28;20026;-78
2022/06/26 00:49:45;;;;;;;11.43;5.65;;;16.10;99.90;;;;;;4965730;28;20026;-78
2022/06/26 00:52:11;;;;;;;9.35;4.53;;;16.30;99.90;;;;;;4983454;28;20033;-78
2022/06/26 00:54:37;;;;;;;12.50;4.82;;;16.10;99.90;;;;;;4988086;28;20031;-77
2022/06/26 00:57:03;;;;;;;9.88;4.60;;;16.00;99.90;;;;;;4987120;28;20392;-78
2022/06/26 00:59:31;;;;;;;7.07;4.57;;;16.10;99.90;;;;;;4981350;28;20024;-78
2022/06/26 01:01:57;;;;;;;7.55;4.22;;;16.00;99.90;;;;;;4976181;28;20063;-78
2022/06/26 01:04:23;;;;;;;8.80;4.75;;;16.00;99.90;;;;;;4990826;28;20019;-77
2022/06/26 01:06:49;;;;;;;11.77;4.53;;;16.00;99.90;;;;;;4977448;28;20536;-78
2022/06/26 01:09:15;;;;;;;7.93;4.32;;;15.90;99.90;;;;;;4976681;28;20019;-78
2022/06/26 01:11:43;;;;;;;11.52;4.07;;;16.00;99.90;;;;;;4976740;28;20025;-77
2022/06/26 01:14:09;;;;;;;8.65;4.50;;;16.00;99.90;;;;;;4986829;28;20031;-77
2022/06/26 01:16:36;;;;;;;10.15;5.10;;;15.90;99.90;;;;;;4980523;28;20077;-78
2022/06/26 01:19:04;;;;;;;8.68;5.47;;;15.90;99.90;;;;;;4984960;28;20370;-77
2022/06/26 01:21:30;;;;;;;10.30;5.75;;;16.00;99.90;;;;;;4981588;28;20069;-77
2022/06/26 01:23:55;;;;;;;7.97;5.45;;;16.00;99.90;;;;;;4982009;28;20054;-77
2022/06/26 01:26:22;;;;;;;14.88;5.38;;;16.00;99.90;;;;;;4983985;28;20370;-77
2022/06/26 01:28:48;;;;;;;9.80;4.90;;;16.00;99.90;;;;;;4990464;28;20038;-77
2022/06/26 01:31:14;;;;;;;8.35;5.00;;;16.00;99.90;;;;;;4977019;28;20015;-78
2022/06/26 01:33:40;;;;;;;12.18;5.18;;;16.10;99.90;;;;;;4976272;28;20078;-77
2022/06/26 01:36:06;;;;;;;10.85;5.20;;;16.00;99.90;;;;;;4968124;28;20062;-77
2022/06/26 01:38:31;;;;;;;10.18;5.00;;;16.10;99.90;;;;;;4971742;28;20019;-77
2022/06/26 01:40:58;;;;;;;14.07;5.75;;;16.00;99.90;;;;;;4976509;28;20078;-77
2022/06/26 01:43:29;;;;;;;12.38;5.30;;;16.10;99.90;;;;;;4988015;28;20118;-77
2022/06/26 01:45:56;;;;;;;11.05;4.72;;;16.10;99.90;;;;;;4982584;28;20033;-77
2022/06/26 01:48:24;;;;;;;9.25;5.07;;;16.10;99.90;;;;;;4985229;28;20088;-77
2022/06/26 01:50:52;;;;;;;8.55;4.80;;;16.10;99.90;;;;;;4975955;28;20454;-77
2022/06/26 01:53:18;;;;;;;8.77;4.90;;;16.20;99.90;;;;;;4975553;28;20651;-77
2022/06/26 01:55:44;;;;;;;7.70;4.65;;;16.20;99.90;;;;;;4977042;28;20081;-77
2022/06/26 01:58:10;;;;;;;10.13;4.13;;;16.10;99.90;;;;;;4987673;28;20026;-77
2022/06/26 02:00:37;;;;;;;13.50;4.30;;;16.10;99.90;;;;;;4975698;28;20141;-77
2022/06/26 02:03:04;;;;;;;5.40;3.90;;;16.10;99.90;;;;;;4987784;28;20030;-77
2022/06/26 02:05:30;;;;;;;9.32;4.10;;;16.00;99.90;;;;;;4986069;28;20466;-77
2022/06/26 02:07:56;;;;;;;9.27;4.07;;;16.10;99.90;;;;;;4981880;28;20037;-77
2022/06/26 02:15:53;;;;;;;8.70;3.50;;;16.20;99.90;;;;;;4989087;28;20038;-77
2022/06/26 02:18:19;;;;;;;10.02;3.38;;;16.20;99.90;;;;;;4979865;28;20022;-77
2022/06/26 02:20:45;;;;;;;9.18;3.55;;;16.20;99.90;;;;;;4983990;28;20026;-77
2022/06/26 02:23:11;;;;;;;7.47;3.08;;;16.20;99.90;;;;;;4975239;28;20121;-77
2022/06/26 02:25:37;;;;;;;14.98;3.45;;;16.30;99.90;;;;;;4976087;28;20026;-77
2022/06/26 02:28:04;;;;;;;14.55;2.85;;;16.40;99.90;;;;;;4989993;28;20030;-77
2022/06/26 02:30:30;;;;;;;10.93;2.92;;;16.30;99.90;;;;;;4984030;28;20026;-77
2022/06/26 02:32:56;;;;;;;5.63;2.50;;;16.30;99.90;;;;;;4981392;28;20100;-77
2022/06/26 02:35:23;;;;;;;5.43;1.85;;;16.30;99.90;;;;;;4962968;28;20038;-77
2022/06/26 02:37:50;;;;;;;2.85;2.10;;;16.20;99.90;;;;;;4976886;28;20054;-78
2022/06/26 02:40:15;;;;;;;2.55;1.40;;;16.20;99.90;;;;;;4976135;28;20027;-77
2022/06/26 02:42:43;;;;;;;3.33;1.10;;;16.20;99.90;;;;;;4987699;28;20077;-78
2022/06/26 02:45:09;;;;;;;4.10;1.50;;;16.10;99.90;;;;;;4987856;28;20572;-77
2022/06/26 02:47:34;;;;;;;1.67;1.20;;;16.10;99.90;;;;;;4979979;28;20027;-77
2022/06/26 02:50:02;;;;;;;1.50;1.15;;;16.10;99.90;;;;;;4984146;28;20031;-77
2022/06/26 02:52:28;;;;;;;1.75;1.52;;;16.20;99.90;;;;;;4977166;28;20640;-77
2022/06/26 02:54:53;;;;;;;2.08;1.48;;;16.10;99.90;;;;;;4986071;28;20033;-78
2022/06/26 02:57:19;;;;;;;3.78;1.70;;;16.10;99.90;;;;;;4988118;28;20033;-77
2022/06/26 02:59:45;;;;;;;1.60;1.50;;;16.10;99.90;;;;;;4980881;28;20049;-77
2022/06/26 03:02:10;;;;;;;2.83;1.77;;;16.10;99.90;;;;;;4981439;28;20023;-77
2022/06/26 03:04:36;;;;;;;8.75;3.60;;;16.00;99.90;;;;;;4974127;28;20030;-77
2022/06/26 03:07:01;;;;;;;4.65;2.65;;;16.10;99.90;;;;;;4984824;28;20035;-78
2022/06/26 03:09:27;;;;;;;4.43;2.80;;;16.10;99.90;;;;;;4977399;28;20576;-77
2022/06/26 03:11:52;;;;;;;4.10;2.65;;;16.10;99.90;;;;;;4974453;28;20041;-77
2022/06/26 03:14:18;;;;;;;3.15;2.67;;;16.20;99.90;;;;;;4987460;28;20037;-77
2022/06/26 03:16:44;;;;;;;4.07;2.85;;;16.20;99.90;;;;;;4973892;28;20443;-77
2022/06/26 03:19:09;;;;;;;3.50;3.00;;;16.20;99.90;;;;;;4986225;28;20041;-77
2022/06/26 03:21:35;;;;;;;4.85;3.25;;;16.40;99.90;;;;;;4987874;28;20030;-77
2022/06/26 03:24:03;;;;;;;6.30;3.55;;;16.30;99.90;;;;;;4984143;28;20116;-77
2022/06/26 03:26:31;;;;;;;4.85;4.07;;;16.30;99.90;;;;;;4977103;28;20121;-77
2022/06/26 03:28:57;;;;;;;4.88;3.97;;;16.30;99.90;;;;;;4982605;28;20023;-77
2022/06/26 03:31:23;;;;;;;7.80;5.53;;;16.30;99.90;;;;;;4978591;28;20061;-77
2022/06/26 03:33:49;;;;;;;9.40;6.55;;;16.30;99.90;;;;;;4966413;28;20137;-77
2022/06/26 03:36:15;;;;;;;12.13;7.55;;;16.50;99.90;;;;;;4971688;28;20106;-77
2022/06/26 03:38:40;;;;;;;12.35;7.78;;;16.30;99.90;;;;;;4973386;28;20030;-77
2022/06/26 03:41:06;;;;;;;14.45;9.05;;;16.30;99.90;;;;;;4973866;28;20708;-77
2022/06/26 03:43:31;;;;;;;17.67;10.57;;;16.30;99.90;;;;;;4972606;28;20027;-77
2022/06/26 03:45:57;;;;;;;18.08;10.50;;;16.20;99.90;;;;;;4973702;28;20023;-77
2022/06/26 03:48:23;;;;;;;18.52;12.23;;;16.50;99.90;;;;;;4973561;28;20114;-77
2022/06/26 03:50:50;;;;;;;21.77;13.48;;;16.30;99.90;;;;;;4973601;28;20509;-77
2022/06/26 03:53:16;;;;;;;23.48;13.15;;;16.50;99.90;;;;;;4973757;28;20034;-77
2022/06/26 03:55:42;;;;;;;22.95;12.88;;;16.30;99.90;;;;;;4973461;28;20074;-77
2022/06/26 03:58:07;;;;;;;25.30;14.35;;;16.40;99.90;;;;;;4973311;28;20022;-77
2022/06/26 04:00:33;;;;;;;25.38;14.73;;;16.40;99.90;;;;;;4973588;28;20034;-77
2022/06/26 04:03:02;;;;;;;23.67;13.75;;;16.50;99.90;;;;;;4973773;28;20034;-77
2022/06/26 04:05:28;;;;;;;22.17;14.75;;;16.40;99.90;;;;;;4973327;28;20030;-77
2022/06/26 04:07:53;;;;;;;23.58;14.57;;;16.50;99.90;;;;;;4973311;28;20034;-77
2022/06/26 04:10:19;;;;;;;25.65;14.77;;;16.60;99.90;;;;;;4959840;28;20019;-77
2022/06/26 04:12:45;;;;;;;20.75;13.48;;;16.60;99.90;;;;;;4963247;28;20042;-77
2022/06/26 04:15:10;;;;;;;30.60;14.43;;;16.60;99.90;;;;;;4956741;28;20024;-77
2022/06/26 04:17:36;;;;;;;24.48;13.77;;;16.50;99.90;;;;;;4973486;28;20023;-77
2022/06/26 04:20:02;;;;;;;22.33;13.73;;;16.50;99.90;;;;;;4973438;28;20027;-77
2022/06/26 04:22:27;;;;;;;19.88;13.48;;;16.40;99.90;;;;;;4973054;28;20018;-76
2022/06/26 04:24:53;;;;;;;27.05;13.70;;;16.50;99.90;;;;;;4973180;28;20382;-76
2022/06/26 04:27:19;;;;;;;23.13;13.35;;;16.20;99.90;;;;;;4978387;28;20027;-76
2022/06/26 04:29:46;;;;;;;21.58;13.55;;;16.30;99.90;;;;;;4980004;28;20027;-78
2022/06/26 04:32:12;;;;;;;21.83;13.82;;;16.40;99.90;;;;;;4979593;28;20034;-77
2022/06/26 04:34:37;;;;;;;21.55;14.10;;;16.30;99.90;;;;;;4979213;28;20050;-77
2022/06/26 04:37:04;;;;;;;23.65;13.57;;;16.30;99.90;;;;;;4978625;28;20032;-77
2022/06/26 04:39:30;;;;;;;23.77;14.48;;;16.50;99.90;;;;;;4986104;28;20358;-77
2022/06/26 04:41:56;;;;;;;27.00;14.32;;;16.50;99.90;;;;;;4986297;28;20022;-77
2022/06/26 04:44:21;;;;;;;26.45;14.48;;;16.70;99.90;;;;;;4979611;28;20622;-77
2022/06/26 04:46:47;;;;;;;25.13;15.10;;;16.80;99.90;;;;;;4979671;28;20419;-77
2022/06/26 04:49:13;;;;;;;24.98;14.30;;;16.90;99.90;;;;;;4977847;28;20100;-77
2022/06/26 04:51:39;;;;;;;28.85;15.55;;;17.10;99.90;;;;;;4967440;28;20019;-77
2022/06/26 04:54:08;;;;;;;29.13;14.63;;;17.00;99.90;;;;;;4966136;28;20030;-77
2022/06/26 04:56:34;;;;;;;29.77;17.23;;;17.20;99.90;;;;;;4966155;28;20029;-77
2022/06/26 04:59:01;;;;;;;26.50;16.45;;;17.10;99.90;;;;;;4979516;28;20421;-77
2022/06/26 05:01:27;;;;;;;30.70;16.58;;;17.20;99.90;;;;;;4965719;28;20026;-77
2022/06/26 05:03:53;;;;;;;29.92;17.20;;;17.30;99.90;;;;;;4969407;28;20762;-77
2022/06/26 05:06:18;;;;;;;27.80;16.90;;;17.30;99.90;;;;;;4975996;28;20030;-77
2022/06/26 05:08:44;;;;;;;30.40;17.88;;;17.30;99.90;;;;;;4979119;28;20023;-77
2022/06/26 05:11:10;;;;;;;30.42;18.55;;;17.20;99.90;;;;;;4979188;28;20026;-77
2022/06/26 05:13:35;;;;;;;32.33;19.05;;;17.30;99.90;;;;;;4979351;28;20085;-77
2022/06/26 05:16:01;;;;;;;30.20;18.50;;;17.20;99.90;;;;;;4978825;28;20033;-77
2022/06/26 05:18:27;;;;;;;28.45;16.45;;;17.20;99.90;;;;;;4979108;28;20032;-76
2022/06/26 05:20:53;;;;;;;24.15;16.20;;;17.40;99.90;;;;;;4978880;28;20018;-77
2022/06/26 05:23:19;;;;;;;30.65;17.23;;;17.50;99.90;;;;;;4978856;28;20437;-77
2022/06/26 05:25:44;;;;;;;27.50;16.60;;;17.50;99.90;;;;;;4976535;28;20102;-77
2022/06/26 05:28:10;;;;;;;25.52;15.25;;;17.40;99.90;;;;;;4978851;28;20023;-77
2022/06/26 05:30:36;;;;;;;22.38;15.60;;;17.30;99.90;;;;;;4964390;28;20031;-77
2022/06/26 05:33:02;;;;;;;23.02;14.63;;;17.40;99.90;;;;;;4959249;28;20036;-77
2022/06/26 05:35:28;;;;;;;19.45;13.82;;;17.60;99.90;;;;;;4970699;28;20030;-77
2022/06/26 05:37:54;;;;;;;20.45;12.73;;;17.60;99.90;;;;;;4976892;28;20030;-77
2022/06/26 05:40:20;;;;;;;19.00;12.30;;;17.80;99.90;;;;;;4975915;28;20023;-77
2022/06/26 05:42:45;;;;;;;17.83;12.38;;;18.10;99.90;;;;;;4976067;28;20023;-77
2022/06/26 05:45:11;;;;;;;17.98;12.88;;;18.40;99.90;;;;;;4956989;28;20114;-77
2022/06/26 05:47:37;;;;;;;15.35;11.73;;;20.90;99.90;;;;;;4956571;28;20024;-77
2022/06/26 05:50:03;;;;;;;15.23;11.15;;;25.10;99.90;;;;;;4956423;28;20650;-77
2022/06/26 05:52:29;;;;;;;13.57;10.80;;;27.50;99.90;;;;;;4956155;28;20537;-77
2022/06/26 05:54:55;;;;;;;13.45;10.38;;;28.90;1.00;;;;;;4956501;28;20031;-77
2022/06/26 05:57:20;;;;;;;14.52;10.23;;;30.30;99.90;;;;;;4956151;28;20038;-76
2022/06/26 05:59:47;;;;;;;11.55;9.18;;;31.40;99.90;;;;;;4956160;28;20023;-77
2022/06/26 06:02:12;;;;;;;11.73;8.57;;;32.30;99.90;;;;;;4962271;28;20030;-77
2022/06/26 06:04:38;;;;;;;12.85;8.75;;;33.20;99.90;;;;;;4975340;28;20022;-77
2022/06/26 06:07:05;;;;;;;11.30;8.40;;;34.60;99.90;;;;;;4975283;28;20097;-77
2022/06/26 06:09:30;;;;;;;9.85;7.90;;;34.50;99.90;;;;;;4975117;28;20015;-77
2022/06/26 06:11:56;;;;;;;10.77;7.32;;;35.30;99.90;;;;;;4975345;28;20371;-77
2022/06/26 06:14:22;;;;;;;8.48;6.68;;;34.70;99.90;;;;;;4973944;28;20109;-77
2022/06/26 06:16:47;;;;;;;8.68;6.95;;;33.80;99.90;;;;;;4975237;28;20030;-77
2022/06/26 06:19:13;;;;;;;8.70;6.75;;;30.90;99.90;;;;;;4970838;28;20359;-78
2022/06/26 06:21:38;;;;;;;8.35;6.80;;;32.60;99.90;;;;;;4973635;28;20023;-78
2022/06/26 06:24:04;;;;;;;7.95;6.38;;;35.20;99.90;;;;;;4974787;28;20340;-77
2022/06/26 06:26:30;;;;;;;6.65;5.60;;;36.10;99.90;;;;;;4965733;28;20030;-78
2022/06/26 06:28:55;;;;;;;8.07;5.60;;;37.80;99.90;;;;;;4955440;28;20093;-77
2022/06/26 06:31:21;;;;;;;6.50;4.70;;;38.50;99.90;;;;;;4955895;28;20019;-78
2022/06/26 06:33:47;;;;;;;6.28;5.15;;;40.10;99.90;;;;;;4955975;28;20053;-78
2022/06/26 06:36:12;;;;;;;5.93;4.25;;;38.30;99.90;;;;;;4956079;29;20027;-78
2022/06/26 06:38:38;;;;;;;5.15;4.43;;;38.90;99.90;;;;;;4960250;28;20026;-78
2022/06/26 06:41:04;;;;;;;5.30;4.40;;;38.00;99.90;;;;;;4975104;28;20693;-79
2022/06/26 06:43:29;;;;;;;5.78;4.05;;;39.20;99.90;;;;;;4970811;28;20038;-78
2022/06/26 06:45:55;;;;;;;5.07;3.95;;;39.80;99.90;;;;;;4966336;28;20016;-79
2022/06/26 06:48:24;;;;;;;4.95;3.72;;;40.40;99.90;;;;;;4955727;28;20027;-79
2022/06/26 06:50:50;;;;;;;;;;;40.80;99.90;;;;;;4958880;28;20014;-79
2022/06/26 06:53:16;;;;;;;3.42;3.13;;;42.20;99.90;;;;;;4955361;28;19920;-79
2022/06/26 06:55:41;;;;;;;3.53;3.13;;;42.20;99.90;;;;;;4965003;28;20075;-79
2022/06/26 06:58:08;;;;;;;4.22;3.83;;;41.90;99.90;;;;;;4969987;28;20059;-79
2022/06/26 07:00:33;;;;;;;5.07;3.88;;;42.10;99.90;;;;;;4955419;28;20047;-79
2022/06/26 07:03:03;;;;;;;4.53;4.03;;;42.10;99.90;;;;;;4959146;28;20081;-79
2022/06/26 07:05:29;;;;;;;6.03;3.70;;;42.50;99.90;;;;;;4974599;28;20051;-78
2022/06/26 07:07:55;;;;;;;3.50;3.20;;;40.40;99.90;;;;;;4974703;28;20435;-78
2022/06/26 07:10:21;;;;;;;3.70;3.13;;;42.50;99.90;;;;;;4974947;28;20027;-79
2022/06/26 07:12:54;;;;;;;4.72;3.65;;;43.20;99.90;;;;;;4976642;28;20035;-78
2022/06/26 07:15:20;;;;;;;4.00;3.28;;;41.40;99.90;;;;;;4955572;29;20371;-78
2022/06/26 07:17:46;;;;;;;3.70;2.95;;;40.10;99.90;;;;;;4961864;28;20486;-78
2022/06/26 07:20:12;;;;;;;4.00;3.47;;;37.60;99.90;;;;;;4967057;28;20034;-78
2022/06/26 07:22:37;;;;;;;4.13;3.20;;;35.30;99.90;;;;;;4975155;28;20030;-78
2022/06/26 07:25:04;;;;;;;6.32;3.33;;;40.00;99.90;;;;;;4975177;28;20029;-78
2022/06/26 07:27:29;;;;;;;5.07;3.50;;;36.70;99.90;;;;;;4974383;28;20537;-78
2022/06/26 07:29:55;;;;;;;3.58;2.75;;;33.30;99.90;;;;;;4974266;28;20027;-78
2022/06/26 07:32:20;;;;;;;5.15;3.17;;;31.40;99.90;;;;;;4975259;28;20523;-78
2022/06/26 07:34:46;;;;;;;4.07;3.25;;;35.90;99.90;;;;;;4962215;28;20062;-78
2022/06/26 07:37:12;;;;;;;4.60;2.72;;;39.10;99.90;;;;;;4955160;29;20457;-78
2022/06/26 07:39:38;;;;;;;4.70;2.80;;;35.10;99.90;;;;;;4955483;28;20023;-78
2022/06/26 07:42:04;;;;;;;5.68;2.55;;;32.60;99.90;;;;;;4954947;29;20029;-77
2022/06/26 07:44:30;;;;;;;6.50;3.45;;;31.80;99.90;;;;;;4978440;28;20039;-79
2022/06/26 07:46:57;;;;;;;4.07;3.28;;;35.50;99.90;;;;;;4980608;28;20016;-78
2022/06/26 07:49:23;;;;;;;4.07;2.90;;;32.40;99.90;;;;;;4983277;28;20078;-78
2022/06/26 07:51:48;;;;;;;4.32;2.60;;;31.60;99.90;;;;;;4998520;28;20265;-78
2022/06/26 07:54:14;;;;;;;4.22;2.47;;;36.10;99.90;;;;;;4989826;28;20031;-78
2022/06/26 07:56:40;;;;;;;3.05;2.58;;;32.70;99.90;;;;;;4975888;28;20516;-78
2022/06/26 07:59:06;;;;;;;3.47;2.20;;;34.20;99.90;;;;;;4975487;28;20029;-77
2022/06/26 08:01:31;;;;;;;2.47;2.17;;;37.90;99.90;;;;;;4973873;28;20030;-78
2022/06/26 08:03:57;;;;;;;3.80;2.42;;;36.70;99.90;;;;;;4974456;28;20102;-77
2022/06/26 08:06:23;;;;;;;3.20;2.55;;;34.30;99.90;;;;;;4974338;28;20046;-77
2022/06/26 08:08:49;;;;;;;1.58;1.23;;;37.00;99.90;;;;;;4974417;28;20074;-78
2022/06/26 08:11:14;;;;;;;3.15;1.92;;;36.70;99.90;;;;;;4971476;28;20422;-77
2022/06/26 08:13:40;;;;;;;3.47;1.90;;;33.10;99.90;;;;;;4955008;28;20035;-77
2022/06/26 08:16:06;;;;;;;2.63;2.28;;;32.30;99.90;;;;;;4955039;28;20046;-77
2022/06/26 08:18:31;;;;;;;3.20;2.45;;;35.10;99.90;;;;;;4955272;28;20375;-77
2022/06/26 08:20:57;;;;;;;3.35;2.28;;;37.10;99.90;;;;;;4955238;28;20486;-77
2022/06/26 08:23:22;;;;;;;2.70;2.40;;;36.60;99.90;;;;;;4955009;28;20345;-77
2022/06/26 08:25:48;;;;;;;2.92;2.10;;;35.70;99.90;;;;;;4964316;28;20027;-77
2022/06/26 08:28:14;;;;;;;3.70;1.98;;;35.50;99.90;;;;;;4974589;28;20031;-77
2022/06/26 08:30:39;;;;;;;3.78;2.30;;;34.20;99.90;;;;;;4974447;28;20432;-77
2022/06/26 08:33:05;;;;;;;2.55;2.03;;;34.60;99.90;;;;;;4973858;28;20039;-77
2022/06/26 08:35:32;;;;;;;3.30;2.00;;;34.70;99.90;;;;;;4974658;28;20078;-77
2022/06/26 08:37:58;;;;;;;4.20;2.03;;;34.70;99.90;;;;;;4974486;28;20054;-77
2022/06/26 08:40:24;;;;;;;3.67;2.00;;;36.80;99.90;;;;;;4974545;28;20027;-77
2022/06/26 08:42:52;;;;;;;3.17;2.00;;;37.40;99.90;;;;;;4974850;28;20031;-78
2022/06/26 08:45:22;;;;;;;2.88;1.98;;;38.80;99.90;;;;;;4974549;28;20414;-76
2022/06/26 08:47:52;;;;;;;2.83;2.15;;;40.10;99.90;;;;;;4975005;28;20034;-76
2022/06/26 08:50:22;;;;;;;4.55;2.38;;;40.80;99.90;;;;;;4974763;28;20526;-79
2022/06/26 08:52:53;;;;;;;2.28;2.08;;;41.10;99.90;;;;;;4974983;28;20082;-79
2022/06/26 08:55:20;;;;;;;2.95;1.77;;;39.20;99.90;;;;;;4960405;28;20026;-78
2022/06/26 08:57:48;;;;;;;3.17;2.10;;;40.90;99.90;;;;;;4974265;28;20033;-78
2022/06/26 09:00:14;;;;;;;2.85;1.60;;;39.40;99.90;;;;;;4973806;28;20053;-78
2022/06/26 09:02:39;;;;;;;5.07;2.42;;;39.70;99.90;;;;;;4973951;28;20047;-78
2022/06/26 09:05:05;;;;;;;3.17;2.15;;;41.70;99.90;;;;;;4973835;28;20029;-78
2022/06/26 09:07:31;;;;;;;3.42;1.65;;;40.90;99.90;;;;;;4974079;28;20027;-78
2022/06/26 09:09:57;;;;;;;2.92;1.73;;;41.80;99.90;;;;;;4973618;28;20366;-78
2022/06/26 09:12:34;;;;;;;3.47;1.92;;;43.50;99.90;;;;;;4973769;28;20370;-78
2022/06/26 09:14:59;;;;;;;3.50;1.70;;;39.40;99.90;;;;;;4974336;28;20509;-79
2022/06/26 09:17:25;;;;;;;2.55;1.70;;;40.40;99.90;;;;;;4977304;28;20502;-78
2022/06/26 09:19:51;;;;;;;3.50;2.00;;;39.50;99.90;;;;;;4977283;28;20031;-78
2022/06/26 09:22:17;;;;;;;3.53;1.95;;;40.50;99.90;;;;;;4977458;28;20102;-77
2022/06/26 09:24:55;;;;;;;3.65;2.08;;;39.80;99.90;;;;;;4977221;28;20023;-78
2022/06/26 09:27:21;;;;;;;4.45;2.33;;;38.30;99.90;;;;;;4977105;28;20015;-78
2022/06/26 09:29:52;;;;;;;2.97;2.05;;;35.90;99.90;;;;;;4977062;28;20470;-78
2022/06/26 09:32:19;;;;;;;4.50;2.40;;;34.70;99.90;;;;;;4976766;28;20058;-79
2022/06/26 09:34:50;;;;;;;2.47;2.05;;;33.50;99.90;;;;;;4976801;28;20058;-78
2022/06/26 09:37:17;;;;;;;5.03;2.42;;;33.50;99.90;;;;;;4976835;28;20027;-78
2022/06/26 09:39:43;;;;;;;6.05;3.25;;;33.10;99.90;;;;;;4976674;28;20386;-78
2022/06/26 09:42:27;;;;;;;4.68;2.60;;;34.40;99.90;;;;;;4976667;28;20462;-78
2022/06/26 09:44:54;;;;;;;4.03;2.20;;;35.40;99.90;;;;;;4957688;28;20027;-78
2022/06/26 09:47:31;;;;;;;3.42;2.30;;;35.40;99.90;;;;;;4969936;28;20026;-78
2022/06/26 09:50:02;;;;;;;3.65;1.83;;;36.50;99.90;;;;;;4973386;28;20026;-78
2022/06/26 09:52:30;;;;;;;3.10;1.83;;;36.40;99.90;;;;;;4980319;28;20031;-78
2022/06/26 09:54:57;;;;;;;2.45;2.00;;;35.30;99.90;;;;;;4979388;28;20486;-78
2022/06/26 09:57:23;;;;;;;1.98;1.88;;;36.50;99.90;;;;;;4976435;28;20041;-78
2022/06/26 09:59:48;;;;;;;2.30;2.10;;;36.70;99.90;;;;;;4976760;28;20547;-78
2022/06/26 10:07:54;;;;;;;3.42;1.90;;;34.80;99.90;;;;;;4976493;28;20054;-78
2022/06/26 10:10:23;;;;;;;7.68;2.80;;;33.70;99.90;;;;;;4976354;28;20023;-78
2022/06/26 10:12:55;;;;;;;3.92;2.20;;;33.30;99.90;;;;;;4976339;28;20170;-78
2022/06/26 10:15:25;;;;;;;3.88;2.38;;;31.60;99.90;;;;;;4976055;28;20058;-78
2022/06/26 10:18:12;;;;;;;4.40;2.20;;;31.50;99.90;;;;;;4976336;28;20041;-78
2022/06/26 10:20:41;;;;;;;2.42;2.10;;;32.00;99.90;;;;;;4975879;28;20027;-77
2022/06/26 10:23:07;;;;;;;3.55;2.10;;;31.60;99.90;;;;;;4970690;28;20062;-77
2022/06/26 10:25:33;;;;;;;4.50;2.15;;;30.20;99.90;;;;;;4958374;28;20058;-78
2022/06/26 10:27:59;;;;;;;3.45;2.80;;;31.40;99.90;;;;;;4975767;28;20175;-78
2022/06/26 10:30:27;;;;;;;3.72;3.10;;;32.30;99.90;;;;;;4975939;28;20031;-78
2022/06/26 10:33:14;;;;;;;4.70;3.00;;;32.50;99.90;;;;;;4975064;28;20062;-78
2022/06/26 10:35:51;;;;;;;3.85;3.20;;;31.70;99.90;;;;;;4972323;28;20050;-78
2022/06/26 10:38:27;;;;;;;3.92;3.50;;;30.90;99.90;;;;;;4956348;28;20015;-78
2022/06/26 10:44:02;;;;;;;6.88;3.38;;;30.00;99.90;;;;;;4956251;29;20051;-78
2022/06/26 10:46:46;;;;;;;4.05;3.60;;;29.30;99.90;;;;;;4956648;29;20086;-77
2022/06/26 10:49:12;;;;;;;4.03;3.42;;;29.40;99.90;;;;;;4956176;28;20038;-77
2022/06/26 10:51:43;;;;;;;4.53;3.42;;;28.70;99.90;;;;;;4964497;28;20031;-78
2022/06/26 10:54:29;;;;;;;5.10;4.28;;;29.10;99.90;;;;;;4975649;28;20027;-78
2022/06/26 10:57:16;;;;;;;6.80;4.78;;;28.80;99.90;;;;;;4963676;28;20019;-78
2022/06/26 10:59:43;;;;;;;5.60;5.10;;;27.60;99.90;;;;;;4972380;28;20113;-78
2022/06/26 11:02:13;;;;;;;5.35;4.95;;;27.60;99.90;;;;;;4975811;28;20038;-77
2022/06/26 11:04:48;;;;;;;5.68;5.18;;;27.50;99.90;;;;;;4975390;28;20092;-78
2022/06/26 11:07:15;;;;;;;5.80;5.30;;;27.40;99.90;;;;;;4968009;28;20157;-77
2022/06/26 11:09:41;;;;;;;5.95;5.35;;;27.50;99.90;;;;;;4975642;28;20022;-77
2022/06/26 11:12:07;;;;;;;6.80;5.00;;;27.60;99.90;;;;;;4975526;28;20037;-78
2022/06/26 11:14:33;;;;;;;7.22;4.88;;;28.80;99.90;;;;;;4962146;28;20035;-78
2022/06/26 11:16:58;;;;;;;6.10;4.50;;;29.30;99.90;;;;;;4960059;28;20033;-78
2022/06/26 11:19:29;;;;;;;4.93;4.50;;;29.60;99.90;;;;;;4975331;28;20022;-77
2022/06/26 11:22:12;;;;;;;5.28;4.78;;;29.20;99.90;;;;;;4974958;28;20023;-77
2022/06/26 11:24:54;;;;;;;6.10;4.22;;;29.20;99.90;;;;;;4965631;28;20015;-77
2022/06/26 11:27:24;;;;;;;5.07;4.13;;;29.00;99.90;;;;;;4975042;28;20027;-77
2022/06/26 11:29:51;;;;;;;5.10;4.35;;;29.00;99.90;;;;;;4975192;28;20089;-78
2022/06/26 11:32:20;;;;;;;6.43;4.72;;;28.80;99.90;;;;;;4974666;28;20039;-77
2022/06/26 11:34:56;;;;;;;4.05;3.65;;;29.40;99.90;;;;;;4975119;28;20062;-78
2022/06/26 11:37:36;;;;;;;6.90;5.45;;;29.90;99.90;;;;;;4973046;28;20546;-78
2022/06/26 11:40:16;;;;;;;6.03;4.68;;;28.20;99.90;;;;;;4962173;28;20078;-77
2022/06/26 11:42:42;;;;;;;5.35;4.03;;;29.40;99.90;;;;;;4980923;28;20427;-77
2022/06/26 11:45:08;;;;;;;5.75;4.57;;;29.40;99.90;;;;;;4994526;28;20025;-78
2022/06/26 11:47:36;;;;;;;5.38;4.03;;;29.30;99.90;;;;;;4983464;28;20019;-78
2022/06/26 11:50:02;;;;;;;5.63;4.05;;;29.80;99.90;;;;;;4973036;28;20102;-77
2022/06/26 11:52:28;;;;;;;6.60;4.20;;;29.80;99.90;;;;;;4981633;28;20630;-77
2022/06/26 11:55:01;;;;;;;5.38;4.20;;;30.00;99.90;;;;;;4982018;28;20034;-78
2022/06/26 11:57:27;;;;;;;5.07;3.70;;;29.50;99.90;;;;;;4981491;28;20026;-77
2022/06/26 11:59:53;;;;;;;5.25;4.28;;;29.40;99.90;;;;;;4994476;28;20106;-77
2022/06/26 12:02:25;;;;;;;5.95;3.60;;;29.00;99.90;;;;;;4994141;28;20472;-78
2022/06/26 12:04:55;;;;;;;3.53;3.20;;;29.30;99.90;;;;;;4994246;28;20041;-77
2022/06/26 12:07:20;;;;;;;5.55;3.63;;;28.70;99.90;;;;;;4994110;28;20046;-77
2022/06/26 12:09:46;;;;;;;5.47;4.15;;;28.30;99.90;;;;;;4992415;28;20072;-77
2022/06/26 12:12:14;;;;;;;6.00;3.70;;;28.00;99.90;;;;;;4974084;28;20031;-77
2022/06/26 12:14:53;;;;;;;5.65;4.22;;;28.50;99.90;;;;;;4974215;28;20410;-77
2022/06/26 12:17:27;;;;;;;4.32;3.75;;;28.70;99.90;;;;;;4974257;28;20690;-77
2022/06/26 12:19:53;;;;;;;5.53;3.70;;;28.70;99.90;;;;;;4974105;28;20027;-77
2022/06/26 12:22:31;;;;;;;6.60;4.30;;;28.70;99.90;;;;;;4974066;28;20082;-77
2022/06/26 12:24:57;;;;;;;6.88;5.05;;;28.60;99.90;;;;;;4975777;28;20526;-77
2022/06/26 12:27:42;;;;;;;6.93;5.80;;;28.50;99.90;;;;;;4980981;28;20045;-77
2022/06/26 12:30:19;;;;;;;5.80;5.20;;;28.10;99.90;;;;;;4979702;28;20014;-77
2022/06/26 12:32:45;;;;;;;5.65;5.15;;;28.40;99.90;;;;;;4980339;28;20039;-78
2022/06/26 12:35:10;;;;;;;6.95;5.82;;;28.10;99.90;;;;;;4968351;28;20062;-78
2022/06/26 12:37:36;;;;;;;7.80;5.50;;;27.30;99.90;;;;;;4986068;28;20019;-78
2022/06/26 12:40:04;;;;;;;6.25;5.50;;;28.40;99.90;;;;;;4993439;28;20473;-78
2022/06/26 12:42:29;;;;;;;6.03;5.10;;;28.70;99.90;;;;;;4954644;28;20040;-77
2022/06/26 12:44:55;;;;;;;6.13;4.65;;;28.70;99.90;;;;;;4954741;28;20042;-77
2022/06/26 12:47:20;;;;;;;8.48;4.57;;;28.40;99.90;;;;;;4963094;28;20054;-77
2022/06/26 12:49:46;;;;;;;5.15;4.43;;;28.20;99.90;;;;;;4977725;28;20098;-78
2022/06/26 12:52:11;;;;;;;6.13;3.60;;;28.60;99.90;;;;;;4977915;28;20047;-78
2022/06/26 12:54:37;;;;;;;5.90;3.85;;;28.40;99.90;;;;;;4977576;28;20085;-77
2022/06/26 12:57:03;;;;;;;5.00;3.85;;;27.90;99.90;;;;;;4977726;28;20103;-78